createdAt,value
2019-03-30T00:02:38.177Z,12.80
2019-03-30T00:06:02.117Z,10.37
2019-03-30T00:09:26.285Z,15.23
2019-03-30T00:12:50.670Z,11.53
2019-03-30T00:16:14.732Z,12.60
2019-03-30T00:19:38.672Z,12.30
2019-03-30T00:23:02.758Z,11.87
2019-03-30T00:26:26.731Z,12.40
2019-03-30T00:29:50.680Z,11.70
2019-03-30T00:33:14.581Z,11.33
2019-03-30T00:36:38.539Z,10.70
2019-03-30T00:40:02.500Z,9.37
2019-03-30T00:43:26.584Z,11.17
2019-03-30T00:46:50.724Z,11.20
2019-03-30T00:50:14.649Z,11.20
2019-03-30T00:53:38.596Z,9.53
2019-03-30T00:57:02.546Z,9.23
2019-03-30T01:00:26.511Z,12.97
2019-03-30T01:03:50.884Z,9.30
2019-03-30T01:07:15.437Z,11.23
2019-03-30T01:10:39.814Z,10.50
2019-03-30T01:14:03.962Z,10.33
2019-03-30T01:17:28.006Z,9.87
2019-03-30T01:20:51.949Z,10.43
2019-03-30T01:24:15.858Z,10.70
2019-03-30T01:27:40.953Z,10.17
2019-03-30T01:31:05.056Z,11.17
2019-03-30T01:34:30.094Z,10.77
2019-03-30T01:37:54.052Z,11.23
2019-03-30T01:41:18.040Z,13.10
2019-03-30T01:44:41.939Z,11.37
2019-03-30T01:48:05.879Z,10.03
2019-03-30T01:51:29.803Z,12.67
2019-03-30T01:54:53.760Z,9.03
2019-03-30T01:58:17.688Z,11.40
2019-03-30T02:01:41.630Z,14.33
2019-03-30T02:05:05.807Z,16.60
2019-03-30T02:08:29.707Z,15.00
2019-03-30T02:11:54.135Z,13.23
2019-03-30T02:15:18.059Z,14.93
2019-03-30T02:18:42.134Z,17.17
2019-03-30T02:22:06.168Z,16.13
2019-03-30T02:25:30.079Z,16.73
2019-03-30T02:28:54.018Z,14.63
2019-03-30T02:32:17.930Z,16.87
2019-03-30T02:35:41.939Z,22.10
2019-03-30T02:39:06.622Z,17.80
2019-03-30T02:42:30.612Z,17.83
2019-03-30T02:45:54.545Z,19.00
2019-03-30T02:49:18.610Z,20.70
2019-03-30T02:52:42.559Z,18.07
2019-03-30T02:56:06.575Z,17.63
2019-03-30T02:59:30.491Z,14.10
2019-03-30T03:02:55.499Z,17.00
2019-03-30T03:06:19.438Z,14.93
2019-03-30T03:09:43.338Z,14.50
2019-03-30T03:13:07.256Z,16.90
2019-03-30T03:16:32.368Z,15.33
2019-03-30T03:19:56.215Z,14.60
2019-03-30T03:23:20.160Z,13.23
2019-03-30T03:26:44.119Z,12.63
2019-03-30T03:30:08.613Z,14.97
2019-03-30T03:33:32.584Z,16.50
2019-03-30T03:36:57.702Z,18.03
2019-03-30T03:40:21.635Z,13.53
2019-03-30T03:43:45.538Z,12.97
2019-03-30T03:47:09.557Z,14.60
2019-03-30T03:50:45.328Z,13.43
2019-03-30T03:54:09.369Z,15.93
2019-03-30T03:57:39.626Z,19.17
2019-03-30T04:01:04.316Z,18.87
2019-03-30T04:04:29.929Z,18.57
2019-03-30T04:07:56.219Z,21.37
2019-03-30T04:11:22.677Z,17.23
2019-03-30T04:14:51.578Z,22.97
2019-03-30T04:18:16.192Z,19.87
2019-03-30T04:21:44.405Z,15.90
2019-03-30T04:25:06.460Z,19.17
2019-03-30T04:28:31.061Z,17.77
2019-03-30T04:31:55.014Z,20.87
2019-03-30T04:35:19.063Z,20.47
2019-03-30T04:38:42.946Z,18.20
2019-03-30T04:42:07.229Z,26.77
2019-03-30T04:45:31.181Z,29.53
2019-03-30T04:48:55.287Z,28.80
2019-03-30T04:52:19.214Z,28.90
2019-03-30T04:55:43.867Z,24.87
2019-03-30T04:59:07.793Z,24.13
2019-03-30T05:02:31.730Z,29.20
2019-03-30T05:05:55.683Z,31.57
2019-03-30T05:09:19.676Z,28.97
2019-03-30T05:12:43.679Z,39.00
2019-03-30T05:16:07.639Z,34.97
2019-03-30T05:19:31.949Z,35.13
2019-03-30T05:22:55.862Z,30.97
2019-03-30T05:26:19.819Z,31.53
2019-03-30T05:29:43.693Z,24.13
2019-03-30T05:33:07.637Z,18.90
2019-03-30T05:36:31.573Z,24.87
2019-03-30T05:39:55.525Z,27.90
2019-03-30T05:43:19.558Z,31.60
2019-03-30T05:46:44.181Z,27.97
2019-03-30T05:50:08.259Z,26.43
2019-03-30T05:53:32.228Z,20.53
2019-03-30T05:56:57.296Z,21.03
2019-03-30T06:00:23.249Z,20.93
2019-03-30T06:03:47.210Z,24.03
2019-03-30T06:07:11.563Z,22.60
2019-03-30T06:10:38.628Z,24.80
2019-03-30T06:14:01.372Z,24.03
2019-03-30T06:17:25.277Z,23.70
2019-03-30T06:20:49.236Z,24.20
2019-03-30T06:24:13.138Z,22.03
2019-03-30T06:27:37.181Z,19.90
2019-03-30T06:31:01.296Z,22.93
2019-03-30T06:34:25.602Z,21.03
2019-03-30T06:37:49.611Z,26.33
2019-03-30T06:41:13.605Z,28.17
2019-03-30T06:44:37.650Z,25.03
2019-03-30T06:48:02.183Z,21.93
2019-03-30T06:51:26.537Z,21.97
2019-03-30T06:54:50.476Z,25.17
2019-03-30T06:58:15.501Z,23.80
2019-03-30T07:01:40.286Z,16.97
2019-03-30T07:05:05.127Z,16.70
2019-03-30T07:08:32.247Z,15.73
2019-03-30T07:11:59.362Z,18.57
2019-03-30T07:15:25.104Z,17.00
2019-03-30T07:18:51.532Z,15.73
2019-03-30T07:22:16.294Z,16.20
2019-03-30T07:25:40.269Z,19.23
2019-03-30T07:29:04.193Z,17.93
2019-03-30T07:32:28.192Z,18.40
2019-03-30T07:35:52.581Z,16.20
2019-03-30T07:39:16.545Z,15.50
2019-03-30T07:42:40.773Z,14.30
2019-03-30T07:46:04.830Z,18.40
2019-03-30T07:49:29.010Z,18.37
2019-03-30T07:52:52.940Z,16.90
2019-03-30T07:56:17.445Z,15.50
2019-03-30T07:59:41.367Z,17.63
2019-03-30T08:03:05.845Z,19.67
2019-03-30T08:06:29.779Z,20.73
2019-03-30T08:09:53.850Z,17.33
2019-03-30T08:13:17.881Z,24.27
2019-03-30T08:16:41.923Z,17.97
2019-03-30T08:20:06.434Z,17.40
2019-03-30T08:23:40.334Z,17.97
2019-03-30T08:26:56.423Z,18.00
2019-03-30T08:30:20.432Z,22.03
2019-03-30T08:33:44.493Z,16.33
2019-03-30T08:37:08.379Z,19.70
2019-03-30T08:40:32.368Z,17.60
2019-03-30T08:43:56.271Z,18.03
2019-03-30T08:47:20.231Z,18.50
2019-03-30T08:50:44.156Z,19.45
2019-03-30T08:54:08.263Z,16.57
2019-03-30T08:57:32.232Z,21.77
2019-03-30T09:00:56.201Z,17.15
2019-03-30T09:04:20.157Z,19.62
2019-03-30T09:07:44.357Z,18.92
2019-03-30T09:11:08.875Z,23.02
2019-03-30T09:14:32.785Z,19.40
2019-03-30T09:17:56.880Z,19.55
2019-03-30T09:21:20.897Z,21.52
2019-03-30T09:24:44.905Z,20.62
2019-03-30T09:28:08.890Z,18.77
2019-03-30T09:31:32.970Z,18.82
2019-03-30T09:34:57.004Z,18.10
2019-03-30T09:38:21.317Z,16.67
2019-03-30T09:41:45.305Z,18.92
2019-03-30T09:45:09.411Z,15.18
2019-03-30T09:48:33.835Z,16.87
2019-03-30T09:51:58.481Z,19.52
2019-03-30T09:55:22.559Z,19.75
2019-03-30T09:58:46.598Z,17.00
2019-03-30T10:02:10.734Z,15.53
2019-03-30T10:05:34.672Z,17.27
2019-03-30T10:08:58.814Z,16.35
2019-03-30T10:12:27.291Z,18.82
2019-03-30T10:15:54.732Z,17.50
2019-03-30T10:19:21.808Z,19.50
2019-03-30T10:22:45.794Z,16.12
2019-03-30T10:26:09.859Z,15.28
2019-03-30T10:29:33.829Z,14.50
2019-03-30T10:32:57.789Z,12.80
2019-03-30T10:36:22.868Z,17.70
2019-03-30T10:39:46.885Z,15.40
2019-03-30T10:43:10.880Z,12.95
2019-03-30T10:46:34.956Z,12.53
2019-03-30T10:49:59.152Z,14.65
2019-03-30T10:53:23.059Z,14.33
2019-03-30T10:56:47.122Z,13.90
2019-03-30T11:00:14.069Z,15.23
2019-03-30T11:03:38.078Z,17.77
2019-03-30T11:07:02.291Z,16.12
2019-03-30T11:10:26.253Z,14.45
2019-03-30T11:13:50.181Z,10.85
2019-03-30T11:17:14.139Z,13.78
2019-03-30T11:20:38.526Z,18.48
2019-03-30T11:24:06.346Z,10.45
2019-03-30T11:27:28.623Z,11.93
2019-03-30T11:30:52.679Z,9.20
2019-03-30T11:34:16.978Z,11.57
2019-03-30T11:37:41.633Z,14.43
2019-03-30T11:41:05.645Z,9.95
2019-03-30T11:44:29.638Z,12.07
2019-03-30T11:47:54.001Z,12.68
2019-03-30T11:51:17.976Z,7.95
